Griston, United Kingdom
Current Conditions -  °F | °C
As of 3:50 PM on Thursday 23 Oct 2014 (Local Time) from EGYM Reporting Station
Scattered Clouds Scattered Clouds  
Wind Chill: 59°   Ceiling: Unl
Heat Index: 59°   Visibility: 6mi
Dew Point: 52°   Wind: 12mph
Humidity: 77%   Direction: 190°S
Pressure: 30"   Gusts: NA
Location:  52.56°N, 0.86°E
Report Text: EGYM 231450Z 19010KT 9999 FEW028 SCT200 15/11 Q1016 BLU BECMG SCT024 WHT
Loading
Personal Weather Stations






























Interactive Weather Map
Tropical Storm Tracking
New forecast layout! Learn more

10-Day Weather Forecast

Advertisements
Track Severe Weather on mobile